Tie Siding, Wyoming
Current Conditions -  °F | °C
As of 3:53 AM on Saturday 25 Oct 2014 (Local Time) from KLAR Reporting Station
Clear Clear  
Wind Chill: 33°   Ceiling: Unl
Heat Index: 39°   Visibility: 10mi
Dew Point: 21°   Wind: 8mph
Humidity: 49%   Direction: 170°S
Pressure: 30.31"   Gusts: NA
Location:  41.09°N, 105.49°W
Report Text: KLAR 250953Z AUTO 17007KT 10SM CLR 04/M06 A3031 RMK AO2 SLP184 T00391061
Loading
Personal Weather Stations






























Interactive Weather Map
Tropical Storm Tracking
New forecast layout! Learn more

10-Day Weather Forecast

Advertisements
Track Severe Weather on mobile